Bella Vista, Arkansas
Current Conditions -  °F | °C
As of 6:15 AM on Wednesday 28 Jan 2015 (Local Time) from KVBT Reporting Station
Clear Clear  
Wind Chill:   Ceiling: Unl
Heat Index:   Visibility: 10mi
Dew Point: -2°   Wind: 9mph
Humidity: 65%   Direction: 140°SE
Pressure: 30.08"   Gusts: NA
Location:  36.48°N, 94.25°W
Report Text: KVBT 281215Z AUTO 14008KT 10SM CLR 04/M02 A3008 RMK AO1
Loading
Personal Weather Stations






























Interactive Weather Map New forecast layout! Learn more

10-Day Weather Forecast

Advertisements
Track Severe Weather on mobile